Olivia, Texas
Current Conditions -  °F | °C
As of 2:35 AM on Saturday 01 Nov 2014 (Local Time) from KPKV Reporting Station
Clear Clear  
Wind Chill: 54°   Ceiling: Unl
Heat Index: 54°   Visibility: 10mi
Dew Point: 46°   Wind: 7mph
Humidity: 73%   Direction: 10°N
Pressure: 30.29"   Gusts: NA
Location:  28.5342°N, 96.663°W
Report Text: KPKV 010735Z AUTO 01006KT 10SM CLR 12/08 A3029 RMK AO2 T01220075
Loading
Personal Weather Stations






























Interactive Weather Map
Tropical Storm Tracking
New forecast layout! Learn more

10-Day Weather Forecast

Advertisements
Track Severe Weather on mobile